To NAV CANADA Home Page Login to a new session Search on AWWS site Feedback and Comments Disclaimer Vers la page française équivalente Tips FAQ What's new on the site To the Forecasts and Observations / NOTAM section To "File a Flight Plan" website Publications and other links Update of the User's profile FIC Telephone Numbers My Weather Data Folder Route Weather Data Regional Weather Data Local Weather Data To the Forecasts and Observations / NOTAM section
Request Generated 04/24/2014 at 12:53:05 UTC . Weather information available at that time is displayed.

METAR/TAF

LYNN LAKE/MB    (show WxCam)

METAR CYYL 241200Z AUTO 08012G17KT 9SM OVC009 M07/M09 A3017 RMK
SLP241=
METAR CYYL 241100Z AUTO 09015G24KT 9SM OVC011 M07/M09 A3015 RMK MAX
WND 09019KT AT 1053Z SLP236=
METAR CYYL 241000Z AUTO 08010G20KT 9SM OVC011 M07/M08 A3015 RMK MAX
WND 08018KT AT 0939Z SLP233=

TAF CYYL 241238Z 2413/2501 08012KT P6SM OVC012 TEMPO 2413/2416 BKN008
FM241600 08015G25KT P6SM SCT015 TEMPO 2416/2501 BKN015
RMK FCST BASED ON AUTO OBS. NXT FCST BY 241900Z=
Your time UTC time
Weather data provided by Environment Canada and NAV CANADA